Time;durP1;ratioP1;P1;durP2;ratioP2;P2;SDS_P1;SDS_P2;PMS_P1;PMS_P2;Temp;Humidity;BMP_temperature;BMP_pressure;BME280_temperature;BME280_humidity;BME280_pressure;Samples;Min_cycle;Max_cycle;Signal;HPM_P1;HPM_P2
2023/05/22 00:02:13;;;;;;;19.33;7.93;;;;;;;;;;5032092;28;20029;-69
2023/05/22 00:04:39;;;;;;;14.48;7.43;;;;;;;;;;5031998;28;20014;-70
2023/05/22 00:07:05;;;;;;;13.48;8.00;;;;;;;;;;5031301;28;20017;-69
2023/05/22 00:09:31;;;;;;;12.95;7.13;;;;;;;;;;5030723;28;20024;-66
2023/05/22 00:11:56;;;;;;;13.15;7.55;;;;;;;;;;5030413;28;20025;-66
2023/05/22 00:14:21;;;;;;;12.65;7.30;;;;;;;;;;5031209;28;20022;-68
2023/05/22 00:16:47;;;;;;;10.15;7.25;;;;;;;;;;5031153;28;20021;-68
2023/05/22 00:19:15;;;;;;;10.57;7.03;;;;;;;;;;5031946;28;20025;-68
2023/05/22 00:21:43;;;;;;;14.38;7.55;;;;;;;;;;5031759;28;20021;-67
2023/05/22 00:24:08;;;;;;;13.32;7.85;;;;;;;;;;5030910;28;20104;-68
2023/05/22 00:26:33;;;;;;;12.75;7.78;;;;;;;;;;5030901;28;20522;-68
2023/05/22 00:28:58;;;;;;;12.63;7.80;;;;;;;;;;5032407;28;20079;-69
2023/05/22 00:31:24;;;;;;;15.95;7.10;;;;;;;;;;5031367;28;20471;-68
2023/05/22 00:33:49;;;;;;;12.85;8.05;;;;;;;;;;5031149;28;20017;-69
2023/05/22 00:36:15;;;;;;;15.00;7.70;;;;;;;;;;5031920;28;20060;-65
2023/05/22 00:38:40;;;;;;;14.02;7.28;;;;;;;;;;5031246;28;20025;-66
2023/05/22 00:41:05;;;;;;;18.13;8.07;;;;;;;;;;5031194;28;20087;-67
2023/05/22 00:43:31;;;;;;;14.75;8.13;;;;;;;;;;5039468;28;20021;-67
2023/05/22 00:45:56;;;;;;;12.73;8.32;;;;;;;;;;5038099;28;20383;-69
2023/05/22 00:48:22;;;;;;;10.40;6.93;;;;;;;;;;5029957;28;20060;-69
2023/05/22 00:50:52;;;;;;;15.73;7.72;;;;;;;;;;5031801;28;20018;-69
2023/05/22 00:53:19;;;;;;;11.68;8.10;;;;;;;;;;5030606;28;20056;-68
2023/05/22 00:55:44;;;;;;;14.73;8.00;;;;;;;;;;5030730;28;20036;-67
2023/05/22 00:58:12;;;;;;;14.05;8.07;;;;;;;;;;5031516;28;20029;-67
2023/05/22 01:00:40;;;;;;;14.97;8.30;;;;;;;;;;5031005;28;20029;-69
2023/05/22 01:03:06;;;;;;;24.08;8.25;;;;;;;;;;5030752;28;20026;-66
2023/05/22 01:05:33;;;;;;;16.27;7.38;;;;;;;;;;5030425;28;20537;-68
2023/05/22 01:07:58;;;;;;;12.32;7.15;;;;;;;;;;5031081;28;20394;-68
2023/05/22 01:10:24;;;;;;;12.88;7.75;;;;;;;;;;5030358;28;20017;-69
2023/05/22 01:12:53;;;;;;;13.00;7.78;;;;;;;;;;5055913;22;20403;-67
2023/05/22 01:15:40;;;;;;;20.00;8.05;;;;;;;;;;5048003;28;20025;-71
2023/05/22 01:18:19;;;;;;;17.58;7.85;;;;;;;;;;5050104;28;20114;-67
2023/05/22 01:21:09;;;;;;;17.17;9.05;;;;;;;;;;5031374;28;20067;-68
2023/05/22 01:23:54;;;;;;;13.18;7.88;;;;;;;;;;5022268;28;20018;-69
2023/05/22 01:26:38;;;;;;;14.50;8.27;;;;;;;;;;5025464;28;20444;-70
2023/05/22 01:29:10;;;;;;;14.07;8.20;;;;;;;;;;5022740;28;20017;-66
2023/05/22 01:31:38;;;;;;;12.27;7.45;;;;;;;;;;5002795;28;20017;-68
2023/05/22 01:34:04;;;;;;;14.63;7.50;;;;;;;;;;5028545;28;20021;-68
2023/05/22 01:36:31;;;;;;;13.20;8.55;;;;;;;;;;5023475;28;20032;-68
2023/05/22 01:38:57;;;;;;;16.40;8.35;;;;;;;;;;5027964;28;20032;-68
2023/05/22 01:41:23;;;;;;;11.93;7.53;;;;;;;;;;5028513;28;20020;-68
2023/05/22 01:43:48;;;;;;;13.68;8.05;;;;;;;;;;5027923;28;20017;-68
2023/05/22 01:46:13;;;;;;;18.30;8.52;;;;;;;;;;5028191;28;20022;-69
2023/05/22 01:48:38;;;;;;;13.77;8.48;;;;;;;;;;5029188;28;20060;-69
2023/05/22 01:51:06;;;;;;;17.30;8.60;;;;;;;;;;5029075;28;20036;-65
2023/05/22 01:53:50;;;;;;;15.45;8.73;;;;;;;;;;5028057;28;20594;-68
2023/05/22 01:56:18;;;;;;;13.57;7.88;;;;;;;;;;5028666;28;20024;-70
2023/05/22 01:59:00;;;;;;;13.73;7.72;;;;;;;;;;5029435;28;20490;-69
2023/05/22 02:01:26;;;;;;;13.65;7.97;;;;;;;;;;5027997;28;20053;-69
2023/05/22 02:03:55;;;;;;;16.52;8.43;;;;;;;;;;5028005;28;20022;-65
2023/05/22 02:06:21;;;;;;;10.75;7.20;;;;;;;;;;5028525;28;20024;-67
2023/05/22 02:08:47;;;;;;;13.15;7.50;;;;;;;;;;5030756;28;20017;-69
2023/05/22 02:11:12;;;;;;;12.82;8.18;;;;;;;;;;5031867;28;20041;-67
2023/05/22 02:13:38;;;;;;;13.40;8.18;;;;;;;;;;5030440;28;20049;-69
2023/05/22 02:16:03;;;;;;;14.90;7.75;;;;;;;;;;5027575;28;20033;-69
2023/05/22 02:18:29;;;;;;;13.68;8.25;;;;;;;;;;5028397;28;20048;-65
2023/05/22 02:20:55;;;;;;;11.40;7.68;;;;;;;;;;5028225;28;20029;-69
2023/05/22 02:23:21;;;;;;;14.98;8.60;;;;;;;;;;5027271;28;20025;-69
2023/05/22 02:25:46;;;;;;;25.02;8.50;;;;;;;;;;5026955;28;20021;-68
2023/05/22 02:28:11;;;;;;;14.60;8.77;;;;;;;;;;5015262;28;20601;-66
2023/05/22 02:30:36;;;;;;;11.75;7.90;;;;;;;;;;5009669;28;20463;-67
2023/05/22 02:33:04;;;;;;;13.10;7.60;;;;;;;;;;5028121;28;20052;-66
2023/05/22 02:35:29;;;;;;;20.33;8.25;;;;;;;;;;5027632;28;20021;-67
2023/05/22 02:37:55;;;;;;;19.63;7.80;;;;;;;;;;5027726;28;20052;-68
2023/05/22 02:40:20;;;;;;;15.55;7.80;;;;;;;;;;5027273;28;20094;-68
2023/05/22 02:42:45;;;;;;;17.42;8.15;;;;;;;;;;5027856;28;20025;-69
2023/05/22 02:45:10;;;;;;;11.98;7.13;;;;;;;;;;5026493;28;20029;-66
2023/05/22 02:47:36;;;;;;;12.98;7.97;;;;;;;;;;5027507;28;20113;-68
2023/05/22 02:50:01;;;;;;;14.60;7.80;;;;;;;;;;5027312;28;20033;-66
2023/05/22 02:52:27;;;;;;;10.63;7.43;;;;;;;;;;5027503;28;20578;-69
2023/05/22 02:54:52;;;;;;;17.63;7.55;;;;;;;;;;5027290;28;20033;-68
2023/05/22 02:57:17;;;;;;;12.00;7.75;;;;;;;;;;5027597;28;20022;-65
2023/05/22 02:59:43;;;;;;;13.48;7.47;;;;;;;;;;5027617;28;20034;-70
2023/05/22 03:02:08;;;;;;;17.20;7.85;;;;;;;;;;5027661;28;20013;-66
2023/05/22 03:04:37;;;;;;;14.95;7.85;;;;;;;;;;5027253;28;20037;-68
2023/05/22 03:07:02;;;;;;;13.45;7.78;;;;;;;;;;5027485;28;20022;-69
2023/05/22 03:09:27;;;;;;;12.25;7.30;;;;;;;;;;5028270;28;20367;-66
2023/05/22 03:11:52;;;;;;;20.63;8.68;;;;;;;;;;5021387;28;20095;-68
2023/05/22 03:14:18;;;;;;;13.05;7.70;;;;;;;;;;5026617;28;20075;-69
2023/05/22 03:16:43;;;;;;;14.77;8.15;;;;;;;;;;5026677;28;20025;-68
2023/05/22 03:19:09;;;;;;;15.13;8.00;;;;;;;;;;5027323;28;20075;-70
2023/05/22 03:21:35;;;;;;;20.65;8.00;;;;;;;;;;5008992;28;20045;-68
2023/05/22 03:24:00;;;;;;;14.05;7.43;;;;;;;;;;5024213;28;20156;-68
2023/05/22 03:26:27;;;;;;;11.20;7.53;;;;;;;;;;5021614;28;20016;-69
2023/05/22 03:28:52;;;;;;;14.85;8.02;;;;;;;;;;5012891;28;20017;-68
2023/05/22 03:31:17;;;;;;;11.60;7.43;;;;;;;;;;5025954;28;20476;-66
2023/05/22 03:33:42;;;;;;;13.27;7.80;;;;;;;;;;5017349;28;20425;-68
2023/05/22 03:36:08;;;;;;;16.10;7.95;;;;;;;;;;5024548;28;20100;-68
2023/05/22 03:38:34;;;;;;;15.65;8.30;;;;;;;;;;5026565;28;20063;-68
2023/05/22 03:40:59;;;;;;;17.98;8.48;;;;;;;;;;5026223;28;20438;-65
2023/05/22 03:43:24;;;;;;;16.63;7.85;;;;;;;;;;5026005;28;20100;-69
2023/05/22 03:45:49;;;;;;;12.85;8.00;;;;;;;;;;5025942;28;20490;-69
2023/05/22 03:48:15;;;;;;;14.02;7.53;;;;;;;;;;5026527;28;20033;-69
2023/05/22 03:50:40;;;;;;;16.13;8.50;;;;;;;;;;5026461;28;20060;-68
2023/05/22 03:53:05;;;;;;;16.02;8.35;;;;;;;;;;5025560;28;20399;-64
2023/05/22 03:55:30;;;;;;;20.77;8.50;;;;;;;;;;5025084;28;20357;-68
2023/05/22 03:57:56;;;;;;;17.23;8.30;;;;;;;;;;5026804;28;20024;-66
2023/05/22 04:00:21;;;;;;;17.40;8.25;;;;;;;;;;5025718;28;20378;-68
2023/05/22 04:02:49;;;;;;;12.80;7.85;;;;;;;;;;5028752;28;20017;-68
2023/05/22 04:05:14;;;;;;;13.40;8.32;;;;;;;;;;5029268;28;20032;-67
2023/05/22 04:07:39;;;;;;;15.50;8.35;;;;;;;;;;5029672;28;20017;-67
2023/05/22 04:10:05;;;;;;;13.02;7.95;;;;;;;;;;5029913;28;20049;-65
2023/05/22 04:12:30;;;;;;;23.73;8.43;;;;;;;;;;4992213;28;1079772;-69
2023/05/22 04:14:55;;;;;;;14.82;7.97;;;;;;;;;;5029767;28;20483;-66
2023/05/22 04:17:21;;;;;;;17.73;8.13;;;;;;;;;;5030594;28;20053;-68
2023/05/22 04:19:46;;;;;;;17.30;8.65;;;;;;;;;;5030516;28;20025;-69
2023/05/22 04:22:11;;;;;;;13.25;7.72;;;;;;;;;;5029851;28;20090;-69
2023/05/22 04:24:38;;;;;;;16.75;6.78;;;;;;;;;;5030237;28;20068;-69
2023/05/22 04:27:04;;;;;;;15.85;7.60;;;;;;;;;;5018379;28;20010;-69
2023/05/22 04:29:29;;;;;;;12.88;7.30;;;;;;;;;;5030582;28;20017;-70
2023/05/22 04:31:54;;;;;;;15.60;7.70;;;;;;;;;;5029831;28;20475;-68
2023/05/22 04:34:20;;;;;;;15.60;7.65;;;;;;;;;;5028165;28;20041;-70
2023/05/22 04:36:46;;;;;;;12.48;7.75;;;;;;;;;;5029767;28;20125;-69
2023/05/22 04:39:14;;;;;;;14.50;6.97;;;;;;;;;;5025044;28;20029;-69
2023/05/22 04:41:40;;;;;;;16.20;7.65;;;;;;;;;;5029534;28;20017;-69
2023/05/22 04:44:05;;;;;;;14.98;7.75;;;;;;;;;;5029455;28;20462;-69
2023/05/22 04:46:33;;;;;;;14.00;7.75;;;;;;;;;;5030318;28;20029;-68
2023/05/22 04:49:00;;;;;;;12.52;7.72;;;;;;;;;;5030179;28;20025;-68
2023/05/22 04:51:26;;;;;;;15.48;7.55;;;;;;;;;;5030349;28;20099;-70
2023/05/22 04:53:51;;;;;;;16.63;7.57;;;;;;;;;;5029326;28;20009;-69
2023/05/22 04:56:16;;;;;;;14.65;7.70;;;;;;;;;;5029823;28;20464;-67
2023/05/22 04:58:41;;;;;;;11.95;7.03;;;;;;;;;;5021472;28;20025;-70
2023/05/22 05:01:08;;;;;;;14.35;7.25;;;;;;;;;;5019899;28;20083;-66
2023/05/22 05:03:33;;;;;;;13.48;7.78;;;;;;;;;;5028001;28;21992;-69
2023/05/22 05:05:59;;;;;;;23.08;6.97;;;;;;;;;;5028339;28;20021;-70
2023/05/22 05:08:24;;;;;;;13.57;6.85;;;;;;;;;;5029577;28;20113;-67
2023/05/22 05:10:50;;;;;;;12.93;7.15;;;;;;;;;;5026185;28;20449;-68
2023/05/22 05:13:15;;;;;;;14.30;6.97;;;;;;;;;;5027957;28;20036;-71
2023/05/22 05:15:40;;;;;;;16.27;7.32;;;;;;;;;;5028532;28;20442;-70
2023/05/22 05:18:05;;;;;;;11.40;6.82;;;;;;;;;;5017651;28;20029;-69
2023/05/22 05:20:30;;;;;;;13.48;6.60;;;;;;;;;;5023809;28;21484;-69
2023/05/22 05:22:56;;;;;;;9.32;6.35;;;;;;;;;;5027747;28;20017;-66
2023/05/22 05:25:21;;;;;;;13.18;7.03;;;;;;;;;;5028652;28;20009;-70
2023/05/22 05:27:46;;;;;;;15.00;6.28;;;;;;;;;;5029471;28;20084;-69
2023/05/22 05:30:12;;;;;;;11.68;6.15;;;;;;;;;;5028575;28;20521;-70
2023/05/22 05:32:37;;;;;;;13.07;6.70;;;;;;;;;;5028096;28;20062;-68
2023/05/22 05:35:02;;;;;;;11.98;7.18;;;;;;;;;;5028174;28;20846;-65
2023/05/22 05:37:27;;;;;;;13.55;6.90;;;;;;;;;;5029075;28;20025;-68
2023/05/22 05:39:53;;;;;;;13.43;6.72;;;;;;;;;;5023751;28;20022;-67
2023/05/22 05:42:18;;;;;;;16.98;6.45;;;;;;;;;;5027062;28;20087;-70
2023/05/22 05:44:44;;;;;;;14.77;6.47;;;;;;;;;;5027297;28;20391;-66
2023/05/22 05:47:10;;;;;;;12.52;5.85;;;;;;;;;;5027008;28;20548;-68
2023/05/22 05:49:35;;;;;;;15.18;6.75;;;;;;;;;;5029035;28;20112;-65
2023/05/22 05:52:00;;;;;;;15.98;6.65;;;;;;;;;;5027986;28;20029;-69
2023/05/22 05:54:25;;;;;;;12.65;6.25;;;;;;;;;;5029294;28;20022;-67
2023/05/22 05:56:51;;;;;;;17.13;6.25;;;;;;;;;;5026730;28;20036;-67
2023/05/22 05:59:16;;;;;;;12.35;7.30;;;;;;;;;;5029206;28;20026;-68
2023/05/22 06:01:43;;;;;;;29.23;7.00;;;;;;;;;;5027749;28;20025;-67
2023/05/22 06:04:08;;;;;;;12.48;6.10;;;;;;;;;;5024899;28;20070;-69
2023/05/22 06:06:38;;;;;;;17.27;6.32;;;;;;;;;;5005828;28;20557;-69
2023/05/22 06:09:05;;;;;;;13.25;6.50;;;;;;;;;;5028232;28;20020;-70
2023/05/22 06:11:30;;;;;;;13.45;7.43;;;;;;;;;;5020349;28;20021;-66
2023/05/22 06:13:58;;;;;;;21.05;7.30;;;;;;;;;;5027703;28;20116;-70
2023/05/22 06:16:23;;;;;;;13.82;6.45;;;;;;;;;;5028676;28;20017;-69
2023/05/22 06:18:50;;;;;;;16.23;6.72;;;;;;;;;;5030823;28;20032;-68
2023/05/22 06:21:16;;;;;;;15.18;6.70;;;;;;;;;;5028764;28;20029;-70
2023/05/22 06:23:41;;;;;;;15.80;6.63;;;;;;;;;;5028115;28;20677;-66
2023/05/22 06:26:07;;;;;;;14.10;6.35;;;;;;;;;;5028312;28;20083;-70
2023/05/22 06:28:33;;;;;;;13.10;6.35;;;;;;;;;;5029962;28;20017;-67
2023/05/22 06:30:58;;;;;;;16.40;6.90;;;;;;;;;;5029976;28;20024;-70
2023/05/22 06:33:23;;;;;;;13.63;6.15;;;;;;;;;;5032123;28;20027;-67
2023/05/22 06:35:48;;;;;;;12.15;6.80;;;;;;;;;;5031103;28;20036;-74
2023/05/22 06:38:13;;;;;;;18.42;6.18;;;;;;;;;;5032522;28;20037;-74
2023/05/22 06:40:39;;;;;;;14.82;6.07;;;;;;;;;;5029130;28;20037;-71
2023/05/22 06:43:04;;;;;;;16.52;6.53;;;;;;;;;;5028994;28;20514;-67
2023/05/22 06:45:29;;;;;;;9.02;5.72;;;;;;;;;;5025070;28;20512;-69
2023/05/22 06:47:55;;;;;;;15.63;6.03;;;;;;;;;;5027596;28;20099;-69
2023/05/22 06:50:21;;;;;;;13.05;6.43;;;;;;;;;;5028316;28;20200;-67
2023/05/22 06:52:46;;;;;;;15.32;6.45;;;;;;;;;;5027398;28;20032;-69
2023/05/22 06:55:11;;;;;;;19.40;5.63;;;;;;;;;;5027551;28;20052;-65
2023/05/22 06:57:36;;;;;;;13.38;5.97;;;;;;;;;;5028150;28;20026;-69
2023/05/22 07:00:06;;;;;;;10.25;5.72;;;;;;;;;;5029920;28;20108;-69
2023/05/22 07:02:31;;;;;;;14.98;5.88;;;;;;;;;;5027631;28;20017;-69
2023/05/22 07:04:56;;;;;;;14.43;5.97;;;;;;;;;;5027833;28;20367;-73
2023/05/22 07:07:22;;;;;;;9.98;5.25;;;;;;;;;;5027290;28;20079;-70
2023/05/22 07:09:47;;;;;;;10.10;5.95;;;;;;;;;;5029037;28;20053;-70
2023/05/22 07:12:12;;;;;;;13.60;5.55;;;;;;;;;;5043652;22;20014;-63
2023/05/22 07:14:38;;;;;;;10.93;5.38;;;;;;;;;;5034130;28;20033;-65
2023/05/22 07:17:03;;;;;;;19.40;6.88;;;;;;;;;;5029154;28;20025;-63
2023/05/22 07:19:28;;;;;;;12.80;5.60;;;;;;;;;;5029575;28;20104;-63
2023/05/22 07:21:53;;;;;;;10.18;5.35;;;;;;;;;;5034796;28;20506;-63
2023/05/22 07:24:19;;;;;;;12.00;5.28;;;;;;;;;;5028809;28;20444;-62
2023/05/22 07:26:45;;;;;;;9.50;5.45;;;;;;;;;;5017429;28;20458;-64
2023/05/22 07:29:11;;;;;;;15.30;5.60;;;;;;;;;;5030152;28;20052;-65
2023/05/22 07:31:37;;;;;;;12.45;4.93;;;;;;;;;;5028078;28;20515;-64
2023/05/22 07:34:03;;;;;;;9.95;4.88;;;;;;;;;;5041542;28;20032;-64
2023/05/22 07:36:28;;;;;;;12.88;4.88;;;;;;;;;;5012824;28;20025;-64
2023/05/22 07:38:53;;;;;;;12.27;5.53;;;;;;;;;;5032275;28;20025;-64
2023/05/22 07:41:18;;;;;;;14.95;4.80;;;;;;;;;;5032392;28;20025;-58
2023/05/22 07:43:44;;;;;;;11.60;5.82;;;;;;;;;;5032998;28;20422;-64
2023/05/22 07:46:09;;;;;;;9.70;5.03;;;;;;;;;;5026142;28;20480;-63
2023/05/22 07:48:34;;;;;;;18.98;5.13;;;;;;;;;;5025014;28;20840;-64
2023/05/22 07:51:02;;;;;;;10.07;4.53;;;;;;;;;;5026397;28;20021;-63
2023/05/22 07:53:27;;;;;;;11.20;4.82;;;;;;;;;;5029547;28;20034;-63
2023/05/22 07:55:52;;;;;;;9.85;4.75;;;;;;;;;;5024550;28;20024;-63
2023/05/22 07:58:18;;;;;;;11.13;4.70;;;;;;;;;;5025745;28;20032;-60
2023/05/22 08:00:43;;;;;;;9.48;4.80;;;;;;;;;;5025131;28;20033;-65
2023/05/22 08:03:08;;;;;;;14.35;5.15;;;;;;;;;;5024267;28;20033;-63
2023/05/22 08:05:34;;;;;;;12.02;5.00;;;;;;;;;;5031281;28;20065;-63
2023/05/22 08:07:59;;;;;;;12.90;4.63;;;;;;;;;;5025633;28;20028;-61
2023/05/22 08:10:25;;;;;;;16.23;4.93;;;;;;;;;;5007532;28;20021;-63
2023/05/22 08:12:50;;;;;;;8.35;4.57;;;;;;;;;;5031736;28;20041;-63
2023/05/22 08:15:15;;;;;;;9.15;4.55;;;;;;;;;;5026553;28;20026;-64
2023/05/22 08:17:40;;;;;;;21.23;5.10;;;;;;;;;;5024960;28;20040;-63
2023/05/22 08:20:07;;;;;;;13.23;5.67;;;;;;;;;;5027175;28;20033;-63
2023/05/22 08:22:33;;;;;;;15.10;4.63;;;;;;;;;;5024209;28;20517;-64
2023/05/22 08:24:58;;;;;;;14.00;4.63;;;;;;;;;;5024543;28;20467;-63
2023/05/22 08:27:24;;;;;;;8.05;4.40;;;;;;;;;;5029997;28;20029;-64
2023/05/22 08:29:49;;;;;;;7.95;4.22;;;;;;;;;;5031247;28;20057;-59
2023/05/22 08:32:14;;;;;;;13.93;4.43;;;;;;;;;;5039814;28;20017;-63
2023/05/22 08:34:40;;;;;;;7.20;3.97;;;;;;;;;;5037456;28;20037;-65
2023/05/22 08:37:08;;;;;;;11.98;3.60;;;;;;;;;;5031688;28;20494;-64
2023/05/22 08:39:33;;;;;;;10.52;4.10;;;;;;;;;;5032924;28;20490;-64
2023/05/22 08:41:58;;;;;;;15.02;3.88;;;;;;;;;;5043496;28;20009;-62
2023/05/22 08:44:24;;;;;;;7.95;4.32;;;;;;;;;;5031265;28;20018;-64
2023/05/22 08:46:50;;;;;;;13.02;3.40;;;;;;;;;;5030621;28;20025;-61
2023/05/22 08:49:16;;;;;;;8.02;3.35;;;;;;;;;;5030064;28;20024;-63
2023/05/22 08:51:41;;;;;;;10.05;3.95;;;;;;;;;;5031464;28;20025;-63
2023/05/22 08:54:07;;;;;;;7.18;4.25;;;;;;;;;;5021632;28;20029;-63
2023/05/22 08:56:33;;;;;;;10.23;4.03;;;;;;;;;;5024308;28;20511;-64
2023/05/22 08:58:58;;;;;;;7.63;3.58;;;;;;;;;;5023516;28;20028;-63
2023/05/22 09:01:24;;;;;;;9.82;3.75;;;;;;;;;;5008830;28;20033;-64
2023/05/22 09:03:50;;;;;;;9.20;4.30;;;;;;;;;;5005772;28;20745;-65
2023/05/22 09:06:16;;;;;;;14.43;4.45;;;;;;;;;;5025239;28;20025;-64
2023/05/22 09:08:41;;;;;;;9.95;4.03;;;;;;;;;;5024323;28;20021;-65
2023/05/22 09:11:06;;;;;;;9.02;4.30;;;;;;;;;;5007899;28;20087;-65
2023/05/22 09:13:32;;;;;;;8.88;4.10;;;;;;;;;;5025224;28;20055;-65
2023/05/22 09:16:07;;;;;;;6.88;3.78;;;;;;;;;;5025619;28;20057;-64
2023/05/22 09:18:33;;;;;;;16.45;5.32;;;;;;;;;;5024301;28;20112;-63
2023/05/22 09:20:59;;;;;;;11.30;4.03;;;;;;;;;;5023771;28;20039;-65
2023/05/22 09:23:26;;;;;;;9.98;3.30;;;;;;;;;;5023729;28;20459;-64
2023/05/22 09:25:53;;;;;;;9.55;3.38;;;;;;;;;;5023627;28;20018;-64
2023/05/22 09:28:19;;;;;;;9.70;3.88;;;;;;;;;;5022494;28;20064;-63
2023/05/22 09:30:50;;;;;;;11.27;4.32;;;;;;;;;;5006393;28;20053;-65
2023/05/22 09:33:15;;;;;;;9.15;3.72;;;;;;;;;;5023970;28;20083;-63
2023/05/22 09:35:42;;;;;;;13.45;3.72;;;;;;;;;;5024977;28;20033;-63
2023/05/22 09:38:08;;;;;;;14.55;3.53;;;;;;;;;;5021440;28;20033;-62
2023/05/22 09:40:36;;;;;;;11.80;3.42;;;;;;;;;;5023795;28;20029;-64
2023/05/22 09:43:05;;;;;;;13.55;3.42;;;;;;;;;;5022719;28;20031;-65
2023/05/22 09:45:33;;;;;;;8.05;3.72;;;;;;;;;;5022404;28;20107;-61
2023/05/22 09:47:58;;;;;;;9.13;3.27;;;;;;;;;;5023060;28;20026;-64
2023/05/22 09:50:23;;;;;;;13.60;3.78;;;;;;;;;;5023156;28;20265;-64
2023/05/22 09:52:49;;;;;;;10.95;3.80;;;;;;;;;;5022899;28;20025;-65
2023/05/22 09:55:15;;;;;;;15.35;3.72;;;;;;;;;;5022315;28;20029;-63
2023/05/22 09:57:44;;;;;;;8.77;3.38;;;;;;;;;;5021701;28;20105;-62
2023/05/22 10:00:14;;;;;;;7.13;2.95;;;;;;;;;;5025912;28;20555;-62
2023/05/22 10:02:44;;;;;;;11.48;3.80;;;;;;;;;;5027787;28;20016;-64
2023/05/22 10:05:10;;;;;;;11.52;3.80;;;;;;;;;;5027908;28;20021;-61
2023/05/22 10:07:40;;;;;;;18.88;4.05;;;;;;;;;;5028802;28;20017;-63
2023/05/22 10:10:07;;;;;;;15.00;3.88;;;;;;;;;;5037248;28;20076;-64
2023/05/22 10:12:37;;;;;;;7.60;3.92;;;;;;;;;;5029598;28;20049;-62
2023/05/22 10:15:02;;;;;;;6.78;3.38;;;;;;;;;;5029490;28;20055;-64
2023/05/22 10:17:28;;;;;;;10.63;4.38;;;;;;;;;;5029814;28;20648;-63
2023/05/22 10:19:54;;;;;;;7.32;3.45;;;;;;;;;;5031858;28;20037;-63
2023/05/22 10:22:21;;;;;;;11.85;3.70;;;;;;;;;;5029265;28;20028;-64
2023/05/22 10:24:50;;;;;;;8.50;4.00;;;;;;;;;;5034164;28;20036;-63
2023/05/22 10:27:16;;;;;;;14.75;3.67;;;;;;;;;;5027051;28;20017;-64
2023/05/22 10:29:45;;;;;;;7.22;3.58;;;;;;;;;;5031316;28;20063;-64
2023/05/22 10:32:20;;;;;;;8.40;3.47;;;;;;;;;;5032850;28;20132;-63
2023/05/22 10:34:45;;;;;;;20.98;5.05;;;;;;;;;;5029483;28;20021;-64
2023/05/22 10:37:18;;;;;;;15.03;4.13;;;;;;;;;;5048043;28;20050;-63
2023/05/22 10:39:57;;;;;;;13.05;3.65;;;;;;;;;;5049880;28;20270;-62
2023/05/22 10:42:22;;;;;;;10.82;3.55;;;;;;;;;;5048987;28;20070;-63
2023/05/22 10:44:48;;;;;;;8.75;4.53;;;;;;;;;;5047771;28;20021;-64
2023/05/22 10:47:13;;;;;;;7.15;3.50;;;;;;;;;;5049346;28;20047;-64
2023/05/22 10:49:42;;;;;;;16.80;3.75;;;;;;;;;;5049148;28;20074;-63
2023/05/22 10:52:08;;;;;;;12.10;3.85;;;;;;;;;;5049476;28;20120;-62
2023/05/22 10:54:38;;;;;;;13.32;3.80;;;;;;;;;;5048561;28;20045;-64
2023/05/22 10:57:13;;;;;;;6.60;3.45;;;;;;;;;;5049454;28;20052;-64
2023/05/22 10:59:38;;;;;;;10.85;4.05;;;;;;;;;;5048636;28;20026;-63
2023/05/22 11:02:04;;;;;;;16.48;3.85;;;;;;;;;;5048652;28;20432;-63
2023/05/22 11:04:30;;;;;;;15.93;3.50;;;;;;;;;;5043399;28;20108;-63
2023/05/22 11:07:05;;;;;;;9.30;3.60;;;;;;;;;;5048355;28;20017;-64
2023/05/22 11:09:31;;;;;;;11.48;4.35;;;;;;;;;;5048637;28;20044;-64
2023/05/22 11:12:15;;;;;;;11.40;4.03;;;;;;;;;;5047163;28;20078;-64
2023/05/22 11:14:51;;;;;;;13.85;3.78;;;;;;;;;;5037513;28;20044;-65
2023/05/22 11:17:18;;;;;;;8.82;3.67;;;;;;;;;;5047317;28;20101;-65
2023/05/22 11:19:46;;;;;;;9.77;3.63;;;;;;;;;;5053151;28;20021;-64
2023/05/22 11:22:12;;;;;;;11.40;3.80;;;;;;;;;;5052073;28;20024;-61
2023/05/22 11:24:38;;;;;;;10.00;3.50;;;;;;;;;;5043792;28;20014;-65
2023/05/22 11:27:05;;;;;;;12.40;3.95;;;;;;;;;;5040899;28;20016;-63
2023/05/22 11:29:31;;;;;;;6.00;3.17;;;;;;;;;;5040689;28;20021;-63
2023/05/22 11:31:57;;;;;;;9.43;3.85;;;;;;;;;;5045631;28;20143;-63
2023/05/22 11:34:23;;;;;;;8.98;3.42;;;;;;;;;;5039045;28;20078;-63
2023/05/22 11:36:48;;;;;;;8.20;3.33;;;;;;;;;;5039923;28;20538;-63
2023/05/22 11:39:13;;;;;;;7.63;3.70;;;;;;;;;;5047001;28;20018;-64
2023/05/22 11:41:39;;;;;;;14.00;3.42;;;;;;;;;;5032901;28;20025;-64
2023/05/22 11:44:06;;;;;;;14.97;4.20;;;;;;;;;;5038058;28;20123;-61
2023/05/22 11:46:31;;;;;;;10.38;3.40;;;;;;;;;;5040519;28;20255;-60
2023/05/22 11:48:57;;;;;;;10.18;3.60;;;;;;;;;;5046967;28;20394;-63
2023/05/22 11:51:22;;;;;;;10.68;3.45;;;;;;;;;;5032967;28;20079;-64
2023/05/22 11:53:47;;;;;;;9.23;3.80;;;;;;;;;;5014058;28;20029;-64
2023/05/22 11:56:13;;;;;;;8.25;2.90;;;;;;;;;;5032628;28;20033;-65
2023/05/22 11:58:38;;;;;;;7.57;3.28;;;;;;;;;;5045841;28;20022;-64
2023/05/22 12:01:04;;;;;;;7.10;3.20;;;;;;;;;;5037720;28;20026;-63
2023/05/22 12:03:30;;;;;;;7.65;3.00;;;;;;;;;;5033285;28;20025;-65
2023/05/22 12:05:56;;;;;;;13.38;3.47;;;;;;;;;;5040105;28;20036;-66
2023/05/22 12:08:22;;;;;;;9.23;2.95;;;;;;;;;;5045884;28;20017;-63
2023/05/22 12:10:51;;;;;;;8.82;3.05;;;;;;;;;;5032442;28;20030;-63
2023/05/22 12:13:23;;;;;;;9.27;3.42;;;;;;;;;;5031323;28;20037;-64
2023/05/22 12:15:49;;;;;;;14.27;4.50;;;;;;;;;;5032003;28;20029;-65
2023/05/22 12:18:16;;;;;;;7.70;2.90;;;;;;;;;;5014422;28;20451;-63
2023/05/22 12:20:44;;;;;;;6.38;3.08;;;;;;;;;;5032910;28;20171;-64
2023/05/22 12:23:10;;;;;;;9.40;3.20;;;;;;;;;;5031755;28;20495;-64
2023/05/22 12:25:36;;;;;;;9.75;3.40;;;;;;;;;;5027232;28;20117;-63
2023/05/22 12:28:01;;;;;;;8.93;3.63;;;;;;;;;;5038487;28;20028;-63
2023/05/22 12:30:26;;;;;;;7.10;3.15;;;;;;;;;;5025577;28;20123;-64
2023/05/22 12:32:52;;;;;;;7.65;3.25;;;;;;;;;;5006853;28;20017;-61
2023/05/22 12:35:17;;;;;;;9.23;3.25;;;;;;;;;;5020252;28;20013;-63
2023/05/22 12:37:49;;;;;;;7.55;3.05;;;;;;;;;;5024787;28;20494;-64
2023/05/22 12:40:15;;;;;;;8.40;3.15;;;;;;;;;;5038131;28;20429;-62
2023/05/22 12:42:40;;;;;;;11.80;3.40;;;;;;;;;;5031476;28;20029;-64
2023/05/22 12:45:06;;;;;;;7.85;3.05;;;;;;;;;;5038011;28;20472;-63
2023/05/22 12:47:31;;;;;;;6.95;2.85;;;;;;;;;;5038009;28;20036;-63
2023/05/22 12:49:56;;;;;;;10.10;3.67;;;;;;;;;;5038144;28;20021;-63
2023/05/22 12:52:21;;;;;;;5.88;3.33;;;;;;;;;;5031275;28;20029;-63
2023/05/22 12:54:46;;;;;;;7.63;2.97;;;;;;;;;;5044267;28;20036;-62
2023/05/22 12:57:12;;;;;;;7.90;3.15;;;;;;;;;;5037512;28;20096;-62
2023/05/22 12:59:37;;;;;;;9.27;3.05;;;;;;;;;;5040927;28;20108;-63
2023/05/22 13:02:03;;;;;;;16.55;3.50;;;;;;;;;;5029238;28;20456;-63
2023/05/22 13:04:28;;;;;;;6.10;3.35;;;;;;;;;;5038595;28;20021;-66
2023/05/22 13:06:53;;;;;;;10.95;3.17;;;;;;;;;;5030797;28;20021;-60
2023/05/22 13:09:19;;;;;;;8.20;2.90;;;;;;;;;;5031565;28;20096;-65
2023/05/22 13:11:45;;;;;;;10.25;3.08;;;;;;;;;;5030349;28;20501;-62
2023/05/22 13:14:10;;;;;;;10.82;3.35;;;;;;;;;;5050151;22;20045;-69
2023/05/22 13:16:36;;;;;;;9.05;3.30;;;;;;;;;;5050357;28;20437;-66
2023/05/22 13:19:01;;;;;;;9.85;3.28;;;;;;;;;;5033069;28;20025;-69
2023/05/22 13:21:26;;;;;;;10.80;3.15;;;;;;;;;;5036416;28;20047;-68
2023/05/22 13:23:51;;;;;;;10.57;3.42;;;;;;;;;;5039512;28;20425;-66
2023/05/22 13:26:17;;;;;;;24.10;4.18;;;;;;;;;;5024521;28;20034;-69
2023/05/22 13:28:42;;;;;;;8.75;2.95;;;;;;;;;;5032598;28;20556;-68
2023/05/22 13:31:07;;;;;;;7.23;2.77;;;;;;;;;;5031868;28;20025;-70
2023/05/22 13:33:32;;;;;;;8.43;3.30;;;;;;;;;;5031218;28;20750;-69
2023/05/22 13:35:57;;;;;;;7.65;2.75;;;;;;;;;;5030963;28;20338;-69
2023/05/22 13:38:23;;;;;;;7.97;2.97;;;;;;;;;;5030476;28;20507;-68
2023/05/22 13:40:48;;;;;;;7.27;2.90;;;;;;;;;;5030373;28;20289;-69
2023/05/22 13:43:13;;;;;;;7.60;2.92;;;;;;;;;;5030224;28;20265;-69
2023/05/22 13:45:39;;;;;;;9.63;2.95;;;;;;;;;;5022280;28;20037;-70
2023/05/22 13:48:04;;;;;;;9.38;3.15;;;;;;;;;;5030384;28;20017;-67
2023/05/22 13:50:32;;;;;;;12.93;2.70;;;;;;;;;;5030578;28;20100;-69
2023/05/22 13:52:57;;;;;;;11.60;3.38;;;;;;;;;;5029818;28;20566;-69
2023/05/22 13:55:22;;;;;;;17.80;3.43;;;;;;;;;;5012589;28;20111;-70
2023/05/22 13:57:48;;;;;;;6.55;3.03;;;;;;;;;;5029366;28;20285;-69
2023/05/22 14:00:13;;;;;;;6.23;2.57;;;;;;;;;;5029714;28;20112;-71
2023/05/22 14:02:39;;;;;;;7.35;2.72;;;;;;;;;;5017040;28;20260;-71
2023/05/22 14:05:04;;;;;;;12.70;3.63;;;;;;;;;;5026578;28;20047;-68
2023/05/22 14:07:29;;;;;;;5.47;2.80;;;;;;;;;;5029196;28;20044;-67
2023/05/22 14:09:55;;;;;;;9.18;3.00;;;;;;;;;;5029768;28;20029;-68
2023/05/22 14:12:20;;;;;;;4.32;2.67;;;;;;;;;;5021632;28;20045;-66
2023/05/22 14:14:45;;;;;;;11.68;3.90;;;;;;;;;;5027521;28;20516;-70
2023/05/22 14:17:10;;;;;;;14.93;5.20;;;;;;;;;;5029330;28;20111;-68
2023/05/22 14:19:37;;;;;;;5.23;2.70;;;;;;;;;;5030256;28;20577;-71
2023/05/22 14:22:02;;;;;;;7.07;2.60;;;;;;;;;;5029571;28;20992;-68
2023/05/22 14:24:28;;;;;;;7.25;2.95;;;;;;;;;;5024383;28;20550;-69
2023/05/22 14:26:56;;;;;;;11.60;3.20;;;;;;;;;;5020169;28;20017;-69
2023/05/22 14:29:22;;;;;;;7.95;3.00;;;;;;;;;;5029120;28;20033;-69